sensor_id;sensor_type;location;lat;lon;timestamp;P1;durP1;ratioP1;P2;durP2;ratioP2
12966;SDS011;6548;49.996;8.238;2023-02-08T00:00:51;29.08;;;14.15;;
12966;SDS011;6548;49.996;8.238;2023-02-08T00:03:16;29.70;;;14.73;;
12966;SDS011;6548;49.996;8.238;2023-02-08T00:05:42;31.95;;;14.48;;
12966;SDS011;6548;49.996;8.238;2023-02-08T00:08:08;24.15;;;12.02;;
12966;SDS011;6548;49.996;8.238;2023-02-08T00:10:34;22.23;;;11.40;;
12966;SDS011;6548;49.996;8.238;2023-02-08T00:13:00;23.33;;;12.70;;
12966;SDS011;6548;49.996;8.238;2023-02-08T00:15:25;23.42;;;9.52;;
12966;SDS011;6548;49.996;8.238;2023-02-08T00:17:51;23.30;;;10.90;;
12966;SDS011;6548;49.996;8.238;2023-02-08T00:20:16;19.95;;;10.45;;
12966;SDS011;6548;49.996;8.238;2023-02-08T00:22:42;20.05;;;10.63;;
12966;SDS011;6548;49.996;8.238;2023-02-08T00:25:07;19.27;;;9.25;;
12966;SDS011;6548;49.996;8.238;2023-02-08T00:27:34;16.17;;;9.55;;
12966;SDS011;6548;49.996;8.238;2023-02-08T00:29:59;16.88;;;9.65;;
12966;SDS011;6548;49.996;8.238;2023-02-08T00:32:25;16.90;;;8.60;;
12966;SDS011;6548;49.996;8.238;2023-02-08T00:34:50;14.38;;;8.43;;
12966;SDS011;6548;49.996;8.238;2023-02-08T00:37:16;21.77;;;9.20;;
12966;SDS011;6548;49.996;8.238;2023-02-08T00:39:42;20.90;;;10.00;;
12966;SDS011;6548;49.996;8.238;2023-02-08T00:42:07;18.23;;;9.48;;
12966;SDS011;6548;49.996;8.238;2023-02-08T00:44:33;17.48;;;8.57;;
12966;SDS011;6548;49.996;8.238;2023-02-08T00:46:59;19.33;;;8.68;;
12966;SDS011;6548;49.996;8.238;2023-02-08T00:49:24;16.25;;;8.23;;
12966;SDS011;6548;49.996;8.238;2023-02-08T00:51:50;17.33;;;7.57;;
12966;SDS011;6548;49.996;8.238;2023-02-08T00:54:16;16.13;;;8.02;;
12966;SDS011;6548;49.996;8.238;2023-02-08T00:56:43;16.48;;;9.07;;
12966;SDS011;6548;49.996;8.238;2023-02-08T00:59:09;18.35;;;8.23;;
12966;SDS011;6548;49.996;8.238;2023-02-08T01:01:35;15.85;;;8.65;;
12966;SDS011;6548;49.996;8.238;2023-02-08T01:04:01;14.50;;;7.95;;
12966;SDS011;6548;49.996;8.238;2023-02-08T01:06:26;17.42;;;8.50;;
12966;SDS011;6548;49.996;8.238;2023-02-08T01:08:52;18.85;;;7.90;;
12966;SDS011;6548;49.996;8.238;2023-02-08T01:11:19;14.95;;;8.05;;
12966;SDS011;6548;49.996;8.238;2023-02-08T01:13:48;15.32;;;7.97;;
12966;SDS011;6548;49.996;8.238;2023-02-08T01:16:19;15.85;;;7.90;;
12966;SDS011;6548;49.996;8.238;2023-02-08T01:18:50;13.85;;;8.07;;
12966;SDS011;6548;49.996;8.238;2023-02-08T01:21:18;12.80;;;7.40;;
12966;SDS011;6548;49.996;8.238;2023-02-08T01:23:45;17.77;;;9.30;;
12966;SDS011;6548;49.996;8.238;2023-02-08T01:26:12;16.98;;;7.80;;
12966;SDS011;6548;49.996;8.238;2023-02-08T01:28:38;14.38;;;7.10;;
12966;SDS011;6548;49.996;8.238;2023-02-08T01:31:09;15.48;;;8.15;;
12966;SDS011;6548;49.996;8.238;2023-02-08T01:33:37;13.93;;;6.80;;
12966;SDS011;6548;49.996;8.238;2023-02-08T01:36:03;15.15;;;8.02;;
12966;SDS011;6548;49.996;8.238;2023-02-08T01:38:29;14.55;;;8.05;;
12966;SDS011;6548;49.996;8.238;2023-02-08T01:40:55;13.60;;;7.45;;
12966;SDS011;6548;49.996;8.238;2023-02-08T01:43:23;14.25;;;7.70;;
12966;SDS011;6548;49.996;8.238;2023-02-08T01:45:54;13.68;;;7.32;;
12966;SDS011;6548;49.996;8.238;2023-02-08T01:48:24;17.17;;;8.32;;
12966;SDS011;6548;49.996;8.238;2023-02-08T01:51:06;15.55;;;8.10;;
12966;SDS011;6548;49.996;8.238;2023-02-08T01:53:38;13.65;;;6.88;;
12966;SDS011;6548;49.996;8.238;2023-02-08T01:56:06;15.07;;;8.13;;
12966;SDS011;6548;49.996;8.238;2023-02-08T01:58:43;14.23;;;7.72;;
12966;SDS011;6548;49.996;8.238;2023-02-08T02:01:12;19.58;;;9.38;;
12966;SDS011;6548;49.996;8.238;2023-02-08T02:03:38;16.05;;;7.90;;
12966;SDS011;6548;49.996;8.238;2023-02-08T02:06:09;14.68;;;7.55;;
12966;SDS011;6548;49.996;8.238;2023-02-08T02:08:41;12.75;;;7.45;;
12966;SDS011;6548;49.996;8.238;2023-02-08T02:11:11;23.02;;;8.23;;
12966;SDS011;6548;49.996;8.238;2023-02-08T02:13:37;12.57;;;6.95;;
12966;SDS011;6548;49.996;8.238;2023-02-08T02:16:04;18.65;;;8.85;;
12966;SDS011;6548;49.996;8.238;2023-02-08T02:18:30;15.32;;;7.78;;
12966;SDS011;6548;49.996;8.238;2023-02-08T02:23:29;18.33;;;10.70;;
12966;SDS011;6548;49.996;8.238;2023-02-08T02:34:59;16.90;;;8.25;;
12966;SDS011;6548;49.996;8.238;2023-02-08T02:40:30;15.80;;;7.13;;
12966;SDS011;6548;49.996;8.238;2023-02-08T02:43:22;15.60;;;7.47;;
12966;SDS011;6548;49.996;8.238;2023-02-08T02:49:25;18.67;;;8.10;;
12966;SDS011;6548;49.996;8.238;2023-02-08T02:52:01;18.40;;;7.90;;
12966;SDS011;6548;49.996;8.238;2023-02-08T02:54:32;17.77;;;8.95;;
12966;SDS011;6548;49.996;8.238;2023-02-08T02:57:23;11.43;;;7.05;;
12966;SDS011;6548;49.996;8.238;2023-02-08T02:59:52;16.65;;;8.38;;
12966;SDS011;6548;49.996;8.238;2023-02-08T03:02:17;14.73;;;8.45;;
12966;SDS011;6548;49.996;8.238;2023-02-08T03:04:47;17.67;;;8.43;;
12966;SDS011;6548;49.996;8.238;2023-02-08T03:07:22;21.75;;;9.23;;
12966;SDS011;6548;49.996;8.238;2023-02-08T03:17:33;15.35;;;8.57;;
12966;SDS011;6548;49.996;8.238;2023-02-08T03:20:17;16.65;;;8.63;;
12966;SDS011;6548;49.996;8.238;2023-02-08T03:25:32;16.25;;;8.48;;
12966;SDS011;6548;49.996;8.238;2023-02-08T03:28:23;20.48;;;8.90;;
12966;SDS011;6548;49.996;8.238;2023-02-08T03:38:34;15.85;;;8.00;;
12966;SDS011;6548;49.996;8.238;2023-02-08T03:41:03;15.20;;;7.88;;
12966;SDS011;6548;49.996;8.238;2023-02-08T03:43:49;25.48;;;8.70;;
12966;SDS011;6548;49.996;8.238;2023-02-08T03:46:40;14.77;;;7.82;;
12966;SDS011;6548;49.996;8.238;2023-02-08T03:49:12;13.43;;;7.25;;
12966;SDS011;6548;49.996;8.238;2023-02-08T03:51:40;14.27;;;6.70;;
12966;SDS011;6548;49.996;8.238;2023-02-08T03:54:16;15.13;;;7.22;;
12966;SDS011;6548;49.996;8.238;2023-02-08T03:57:48;14.20;;;6.97;;
12966;SDS011;6548;49.996;8.238;2023-02-08T03:59:56;12.07;;;6.22;;
12966;SDS011;6548;49.996;8.238;2023-02-08T04:02:29;12.63;;;6.70;;
12966;SDS011;6548;49.996;8.238;2023-02-08T04:04:58;11.35;;;5.95;;
12966;SDS011;6548;49.996;8.238;2023-02-08T04:07:25;15.38;;;6.70;;
12966;SDS011;6548;49.996;8.238;2023-02-08T04:09:51;13.50;;;6.38;;
12966;SDS011;6548;49.996;8.238;2023-02-08T04:12:16;13.07;;;5.35;;
12966;SDS011;6548;49.996;8.238;2023-02-08T04:14:42;12.80;;;5.25;;
12966;SDS011;6548;49.996;8.238;2023-02-08T04:17:07;12.55;;;6.53;;
12966;SDS011;6548;49.996;8.238;2023-02-08T04:19:33;15.15;;;6.43;;
12966;SDS011;6548;49.996;8.238;2023-02-08T04:21:59;11.65;;;6.13;;
12966;SDS011;6548;49.996;8.238;2023-02-08T04:24:24;12.45;;;5.97;;
12966;SDS011;6548;49.996;8.238;2023-02-08T04:26:50;11.38;;;4.88;;
12966;SDS011;6548;49.996;8.238;2023-02-08T04:29:16;9.68;;;4.65;;
12966;SDS011;6548;49.996;8.238;2023-02-08T04:31:42;14.93;;;6.10;;
12966;SDS011;6548;49.996;8.238;2023-02-08T04:34:07;12.75;;;5.38;;
12966;SDS011;6548;49.996;8.238;2023-02-08T04:36:33;10.20;;;5.40;;
12966;SDS011;6548;49.996;8.238;2023-02-08T04:38:58;10.18;;;5.25;;
12966;SDS011;6548;49.996;8.238;2023-02-08T04:41:24;11.10;;;4.72;;
12966;SDS011;6548;49.996;8.238;2023-02-08T04:43:49;8.40;;;4.90;;
12966;SDS011;6548;49.996;8.238;2023-02-08T04:46:15;8.88;;;5.28;;
12966;SDS011;6548;49.996;8.238;2023-02-08T04:48:41;9.30;;;5.25;;
12966;SDS011;6548;49.996;8.238;2023-02-08T04:51:06;8.57;;;5.47;;
12966;SDS011;6548;49.996;8.238;2023-02-08T04:53:32;10.43;;;5.03;;
12966;SDS011;6548;49.996;8.238;2023-02-08T04:55:58;8.10;;;4.57;;
12966;SDS011;6548;49.996;8.238;2023-02-08T04:58:24;9.15;;;4.78;;
12966;SDS011;6548;49.996;8.238;2023-02-08T05:00:49;9.48;;;5.43;;
12966;SDS011;6548;49.996;8.238;2023-02-08T05:03:15;9.13;;;5.75;;
12966;SDS011;6548;49.996;8.238;2023-02-08T05:05:41;9.15;;;5.18;;
12966;SDS011;6548;49.996;8.238;2023-02-08T05:08:06;8.63;;;4.68;;
12966;SDS011;6548;49.996;8.238;2023-02-08T05:10:32;8.18;;;4.60;;
12966;SDS011;6548;49.996;8.238;2023-02-08T05:12:57;8.13;;;5.03;;
12966;SDS011;6548;49.996;8.238;2023-02-08T05:15:23;6.85;;;4.38;;
12966;SDS011;6548;49.996;8.238;2023-02-08T05:17:49;8.52;;;4.88;;
12966;SDS011;6548;49.996;8.238;2023-02-08T05:20:14;7.85;;;4.20;;
12966;SDS011;6548;49.996;8.238;2023-02-08T05:22:40;9.93;;;5.25;;
12966;SDS011;6548;49.996;8.238;2023-02-08T05:25:06;8.15;;;4.38;;
12966;SDS011;6548;49.996;8.238;2023-02-08T05:27:32;11.52;;;4.63;;
12966;SDS011;6548;49.996;8.238;2023-02-08T05:29:59;12.02;;;4.78;;
12966;SDS011;6548;49.996;8.238;2023-02-08T05:32:24;11.07;;;5.35;;
12966;SDS011;6548;49.996;8.238;2023-02-08T05:34:50;7.80;;;4.38;;
12966;SDS011;6548;49.996;8.238;2023-02-08T05:37:16;9.38;;;4.70;;
12966;SDS011;6548;49.996;8.238;2023-02-08T05:39:41;11.75;;;5.43;;
12966;SDS011;6548;49.996;8.238;2023-02-08T05:42:07;12.43;;;4.60;;
12966;SDS011;6548;49.996;8.238;2023-02-08T05:44:32;8.43;;;4.57;;
12966;SDS011;6548;49.996;8.238;2023-02-08T05:46:58;9.15;;;4.55;;
12966;SDS011;6548;49.996;8.238;2023-02-08T05:49:23;9.32;;;4.97;;
12966;SDS011;6548;49.996;8.238;2023-02-08T05:51:49;8.25;;;4.82;;
12966;SDS011;6548;49.996;8.238;2023-02-08T05:54:15;9.32;;;4.80;;
12966;SDS011;6548;49.996;8.238;2023-02-08T05:56:41;12.65;;;5.38;;
12966;SDS011;6548;49.996;8.238;2023-02-08T05:59:08;8.43;;;4.60;;
12966;SDS011;6548;49.996;8.238;2023-02-08T06:01:34;10.43;;;5.55;;
12966;SDS011;6548;49.996;8.238;2023-02-08T06:03:59;11.07;;;5.35;;
12966;SDS011;6548;49.996;8.238;2023-02-08T06:06:25;11.07;;;4.97;;
12966;SDS011;6548;49.996;8.238;2023-02-08T06:08:51;9.48;;;5.10;;
12966;SDS011;6548;49.996;8.238;2023-02-08T06:11:17;10.40;;;5.35;;
12966;SDS011;6548;49.996;8.238;2023-02-08T06:13:43;10.13;;;5.68;;
12966;SDS011;6548;49.996;8.238;2023-02-08T06:16:10;13.30;;;5.18;;
12966;SDS011;6548;49.996;8.238;2023-02-08T06:18:36;9.60;;;5.60;;
12966;SDS011;6548;49.996;8.238;2023-02-08T06:21:02;10.80;;;5.80;;
12966;SDS011;6548;49.996;8.238;2023-02-08T06:23:28;7.78;;;4.75;;
12966;SDS011;6548;49.996;8.238;2023-02-08T06:25:54;9.85;;;5.90;;
12966;SDS011;6548;49.996;8.238;2023-02-08T06:28:20;8.13;;;5.03;;
12966;SDS011;6548;49.996;8.238;2023-02-08T06:30:47;10.73;;;5.18;;
12966;SDS011;6548;49.996;8.238;2023-02-08T06:33:13;9.38;;;4.93;;
12966;SDS011;6548;49.996;8.238;2023-02-08T06:35:41;9.55;;;4.90;;
12966;SDS011;6548;49.996;8.238;2023-02-08T06:38:12;9.23;;;4.85;;
12966;SDS011;6548;49.996;8.238;2023-02-08T06:40:38;8.30;;;4.75;;
12966;SDS011;6548;49.996;8.238;2023-02-08T06:43:04;9.35;;;5.00;;
12966;SDS011;6548;49.996;8.238;2023-02-08T06:45:30;9.93;;;5.63;;
12966;SDS011;6548;49.996;8.238;2023-02-08T06:47:55;8.02;;;4.25;;
12966;SDS011;6548;49.996;8.238;2023-02-08T06:50:21;11.27;;;5.57;;
12966;SDS011;6548;49.996;8.238;2023-02-08T06:52:47;10.73;;;5.00;;
12966;SDS011;6548;49.996;8.238;2023-02-08T06:55:12;11.35;;;4.85;;
12966;SDS011;6548;49.996;8.238;2023-02-08T06:57:38;10.68;;;5.60;;
12966;SDS011;6548;49.996;8.238;2023-02-08T07:00:04;9.43;;;5.65;;
12966;SDS011;6548;49.996;8.238;2023-02-08T07:02:30;10.75;;;5.25;;
12966;SDS011;6548;49.996;8.238;2023-02-08T07:04:56;9.52;;;4.53;;
12966;SDS011;6548;49.996;8.238;2023-02-08T07:07:21;11.57;;;5.25;;
12966;SDS011;6548;49.996;8.238;2023-02-08T07:09:47;11.18;;;5.60;;
12966;SDS011;6548;49.996;8.238;2023-02-08T07:12:13;7.57;;;3.85;;
12966;SDS011;6548;49.996;8.238;2023-02-08T07:14:39;12.10;;;5.20;;
12966;SDS011;6548;49.996;8.238;2023-02-08T07:17:07;10.35;;;4.90;;
12966;SDS011;6548;49.996;8.238;2023-02-08T07:19:33;9.50;;;5.10;;
12966;SDS011;6548;49.996;8.238;2023-02-08T07:21:59;9.15;;;4.68;;
12966;SDS011;6548;49.996;8.238;2023-02-08T07:24:28;7.55;;;4.45;;
12966;SDS011;6548;49.996;8.238;2023-02-08T07:26:54;10.80;;;4.97;;
12966;SDS011;6548;49.996;8.238;2023-02-08T07:29:20;10.13;;;5.07;;
12966;SDS011;6548;49.996;8.238;2023-02-08T07:31:46;5.78;;;4.40;;
12966;SDS011;6548;49.996;8.238;2023-02-08T07:34:11;5.35;;;3.97;;
12966;SDS011;6548;49.996;8.238;2023-02-08T07:36:37;10.30;;;5.00;;
12966;SDS011;6548;49.996;8.238;2023-02-08T07:39:02;8.68;;;4.43;;
12966;SDS011;6548;49.996;8.238;2023-02-08T07:41:28;12.77;;;5.60;;
12966;SDS011;6548;49.996;8.238;2023-02-08T07:43:54;11.77;;;4.57;;
12966;SDS011;6548;49.996;8.238;2023-02-08T07:46:20;13.82;;;5.07;;
12966;SDS011;6548;49.996;8.238;2023-02-08T07:48:46;16.55;;;5.57;;
12966;SDS011;6548;49.996;8.238;2023-02-08T07:51:13;5.70;;;3.20;;
12966;SDS011;6548;49.996;8.238;2023-02-08T07:53:39;8.55;;;5.43;;
12966;SDS011;6548;49.996;8.238;2023-02-08T07:56:05;7.30;;;3.25;;
12966;SDS011;6548;49.996;8.238;2023-02-08T07:58:31;9.98;;;5.10;;
12966;SDS011;6548;49.996;8.238;2023-02-08T08:00:57;12.38;;;5.03;;
12966;SDS011;6548;49.996;8.238;2023-02-08T08:03:23;13.40;;;5.85;;
12966;SDS011;6548;49.996;8.238;2023-02-08T08:05:49;6.63;;;4.25;;
12966;SDS011;6548;49.996;8.238;2023-02-08T08:08:15;8.52;;;3.22;;
12966;SDS011;6548;49.996;8.238;2023-02-08T08:10:40;9.82;;;5.03;;
12966;SDS011;6548;49.996;8.238;2023-02-08T08:13:06;10.02;;;4.50;;
12966;SDS011;6548;49.996;8.238;2023-02-08T08:15:32;9.90;;;5.38;;
12966;SDS011;6548;49.996;8.238;2023-02-08T08:17:58;12.73;;;6.03;;
12966;SDS011;6548;49.996;8.238;2023-02-08T08:20:23;16.88;;;5.57;;
12966;SDS011;6548;49.996;8.238;2023-02-08T08:22:49;9.23;;;4.88;;
12966;SDS011;6548;49.996;8.238;2023-02-08T08:25:15;8.77;;;5.55;;
12966;SDS011;6548;49.996;8.238;2023-02-08T08:27:41;11.02;;;5.55;;
12966;SDS011;6548;49.996;8.238;2023-02-08T08:30:07;13.77;;;6.68;;
12966;SDS011;6548;49.996;8.238;2023-02-08T08:32:34;6.70;;;3.83;;
12966;SDS011;6548;49.996;8.238;2023-02-08T08:35:00;12.55;;;6.07;;
12966;SDS011;6548;49.996;8.238;2023-02-08T08:37:26;8.45;;;5.32;;
12966;SDS011;6548;49.996;8.238;2023-02-08T08:39:51;8.57;;;4.63;;
12966;SDS011;6548;49.996;8.238;2023-02-08T08:42:17;12.13;;;5.47;;
12966;SDS011;6548;49.996;8.238;2023-02-08T08:44:44;14.48;;;6.53;;
12966;SDS011;6548;49.996;8.238;2023-02-08T08:47:09;15.10;;;5.63;;
12966;SDS011;6548;49.996;8.238;2023-02-08T08:49:35;13.95;;;6.97;;
12966;SDS011;6548;49.996;8.238;2023-02-08T08:52:01;11.18;;;5.45;;
12966;SDS011;6548;49.996;8.238;2023-02-08T08:54:26;13.32;;;6.97;;
12966;SDS011;6548;49.996;8.238;2023-02-08T08:56:52;14.93;;;6.32;;
12966;SDS011;6548;49.996;8.238;2023-02-08T08:59:17;10.88;;;5.35;;
12966;SDS011;6548;49.996;8.238;2023-02-08T09:01:43;12.02;;;7.60;;
12966;SDS011;6548;49.996;8.238;2023-02-08T09:04:09;11.57;;;6.30;;
12966;SDS011;6548;49.996;8.238;2023-02-08T09:06:35;11.10;;;5.90;;
12966;SDS011;6548;49.996;8.238;2023-02-08T09:09:00;11.13;;;6.32;;
12966;SDS011;6548;49.996;8.238;2023-02-08T09:11:26;7.60;;;4.50;;
12966;SDS011;6548;49.996;8.238;2023-02-08T09:13:52;11.32;;;6.35;;
12966;SDS011;6548;49.996;8.238;2023-02-08T09:16:20;12.70;;;6.63;;
12966;SDS011;6548;49.996;8.238;2023-02-08T09:18:47;16.42;;;6.70;;
12966;SDS011;6548;49.996;8.238;2023-02-08T09:21:14;9.65;;;5.65;;
12966;SDS011;6548;49.996;8.238;2023-02-08T09:23:44;10.05;;;6.00;;
12966;SDS011;6548;49.996;8.238;2023-02-08T09:26:13;14.05;;;6.43;;
12966;SDS011;6548;49.996;8.238;2023-02-08T09:28:40;14.95;;;7.30;;
12966;SDS011;6548;49.996;8.238;2023-02-08T09:31:09;12.35;;;6.10;;
12966;SDS011;6548;49.996;8.238;2023-02-08T09:33:37;11.90;;;6.15;;
12966;SDS011;6548;49.996;8.238;2023-02-08T09:36:02;13.20;;;6.88;;
12966;SDS011;6548;49.996;8.238;2023-02-08T09:38:29;11.43;;;6.88;;
12966;SDS011;6548;49.996;8.238;2023-02-08T09:43:29;11.32;;;5.63;;
12966;SDS011;6548;49.996;8.238;2023-02-08T09:46:10;13.93;;;6.70;;
12966;SDS011;6548;49.996;8.238;2023-02-08T09:48:41;8.93;;;5.35;;
12966;SDS011;6548;49.996;8.238;2023-02-08T09:51:28;16.77;;;7.25;;
12966;SDS011;6548;49.996;8.238;2023-02-08T09:54:17;9.98;;;5.90;;
12966;SDS011;6548;49.996;8.238;2023-02-08T09:57:02;34.15;;;8.35;;
12966;SDS011;6548;49.996;8.238;2023-02-08T09:59:32;12.10;;;5.95;;
12966;SDS011;6548;49.996;8.238;2023-02-08T10:02:00;13.32;;;6.50;;
12966;SDS011;6548;49.996;8.238;2023-02-08T10:05:00;12.68;;;7.07;;
12966;SDS011;6548;49.996;8.238;2023-02-08T10:07:32;18.35;;;8.38;;
12966;SDS011;6548;49.996;8.238;2023-02-08T10:10:00;10.30;;;6.13;;
12966;SDS011;6548;49.996;8.238;2023-02-08T10:15:46;14.10;;;5.82;;
12966;SDS011;6548;49.996;8.238;2023-02-08T10:21:13;14.50;;;7.10;;
12966;SDS011;6548;49.996;8.238;2023-02-08T10:29:51;13.13;;;6.95;;
12966;SDS011;6548;49.996;8.238;2023-02-08T10:35:11;10.65;;;5.40;;
12966;SDS011;6548;49.996;8.238;2023-02-08T10:37:41;14.63;;;7.32;;
12966;SDS011;6548;49.996;8.238;2023-02-08T10:42:44;16.48;;;7.82;;
12966;SDS011;6548;49.996;8.238;2023-02-08T10:45:24;15.88;;;8.15;;
12966;SDS011;6548;49.996;8.238;2023-02-08T10:48:04;18.95;;;9.65;;
12966;SDS011;6548;49.996;8.238;2023-02-08T10:50:40;13.05;;;7.65;;
12966;SDS011;6548;49.996;8.238;2023-02-08T10:53:15;9.55;;;5.45;;
12966;SDS011;6548;49.996;8.238;2023-02-08T10:55:42;12.38;;;7.22;;
12966;SDS011;6548;49.996;8.238;2023-02-08T10:58:17;15.00;;;8.52;;
12966;SDS011;6548;49.996;8.238;2023-02-08T11:00:45;14.63;;;8.23;;
12966;SDS011;6548;49.996;8.238;2023-02-08T11:03:13;14.73;;;8.00;;
12966;SDS011;6548;49.996;8.238;2023-02-08T11:05:42;11.95;;;7.90;;
12966;SDS011;6548;49.996;8.238;2023-02-08T11:08:13;11.05;;;6.70;;
12966;SDS011;6548;49.996;8.238;2023-02-08T11:10:45;15.75;;;7.68;;
12966;SDS011;6548;49.996;8.238;2023-02-08T11:13:25;18.10;;;7.70;;
12966;SDS011;6548;49.996;8.238;2023-02-08T11:15:57;14.50;;;6.60;;
12966;SDS011;6548;49.996;8.238;2023-02-08T11:18:33;17.55;;;7.85;;
12966;SDS011;6548;49.996;8.238;2023-02-08T11:21:31;15.50;;;6.97;;
12966;SDS011;6548;49.996;8.238;2023-02-08T11:23:59;14.27;;;7.50;;
12966;SDS011;6548;49.996;8.238;2023-02-08T11:26:35;13.80;;;7.65;;
12966;SDS011;6548;49.996;8.238;2023-02-08T11:29:15;12.68;;;6.70;;
12966;SDS011;6548;49.996;8.238;2023-02-08T11:34:39;14.65;;;7.13;;
12966;SDS011;6548;49.996;8.238;2023-02-08T11:37:18;10.57;;;5.35;;
12966;SDS011;6548;49.996;8.238;2023-02-08T11:39:51;12.93;;;6.35;;
12966;SDS011;6548;49.996;8.238;2023-02-08T11:44:49;13.57;;;7.03;;
12966;SDS011;6548;49.996;8.238;2023-02-08T11:47:16;10.32;;;6.03;;
12966;SDS011;6548;49.996;8.238;2023-02-08T11:49:54;13.13;;;7.35;;
12966;SDS011;6548;49.996;8.238;2023-02-08T11:52:22;14.10;;;6.50;;
12966;SDS011;6548;49.996;8.238;2023-02-08T11:54:50;10.98;;;7.03;;
12966;SDS011;6548;49.996;8.238;2023-02-08T11:57:23;12.25;;;5.60;;
12966;SDS011;6548;49.996;8.238;2023-02-08T12:00:11;8.43;;;4.75;;
12966;SDS011;6548;49.996;8.238;2023-02-08T12:02:42;14.18;;;6.45;;
12966;SDS011;6548;49.996;8.238;2023-02-08T12:05:13;11.05;;;6.97;;
12966;SDS011;6548;49.996;8.238;2023-02-08T12:10:54;10.90;;;5.75;;
12966;SDS011;6548;49.996;8.238;2023-02-08T12:13:36;13.38;;;7.70;;
12966;SDS011;6548;49.996;8.238;2023-02-08T12:16:27;10.10;;;5.72;;
12966;SDS011;6548;49.996;8.238;2023-02-08T12:22:15;15.50;;;8.32;;
12966;SDS011;6548;49.996;8.238;2023-02-08T12:24:58;14.68;;;7.68;;
12966;SDS011;6548;49.996;8.238;2023-02-08T12:35:36;15.40;;;6.88;;
12966;SDS011;6548;49.996;8.238;2023-02-08T12:38:10;13.52;;;7.65;;
12966;SDS011;6548;49.996;8.238;2023-02-08T12:47:06;11.45;;;7.00;;
12966;SDS011;6548;49.996;8.238;2023-02-08T12:50:13;16.60;;;8.45;;
12966;SDS011;6548;49.996;8.238;2023-02-08T12:52:51;14.35;;;9.13;;
12966;SDS011;6548;49.996;8.238;2023-02-08T12:55:25;14.80;;;7.43;;
12966;SDS011;6548;49.996;8.238;2023-02-08T12:58:16;11.90;;;7.75;;
12966;SDS011;6548;49.996;8.238;2023-02-08T13:00:53;14.52;;;7.90;;
12966;SDS011;6548;49.996;8.238;2023-02-08T13:03:40;14.48;;;7.78;;
12966;SDS011;6548;49.996;8.238;2023-02-08T13:06:20;15.40;;;7.20;;
12966;SDS011;6548;49.996;8.238;2023-02-08T13:08:58;12.85;;;7.95;;
12966;SDS011;6548;49.996;8.238;2023-02-08T13:16:49;14.80;;;7.68;;
12966;SDS011;6548;49.996;8.238;2023-02-08T13:19:23;14.35;;;7.75;;
12966;SDS011;6548;49.996;8.238;2023-02-08T13:21:54;12.40;;;6.85;;
12966;SDS011;6548;49.996;8.238;2023-02-08T13:24:33;13.77;;;7.60;;
12966;SDS011;6548;49.996;8.238;2023-02-08T13:27:02;14.52;;;8.45;;
12966;SDS011;6548;49.996;8.238;2023-02-08T13:29:31;15.68;;;9.05;;
12966;SDS011;6548;49.996;8.238;2023-02-08T13:32:20;12.43;;;7.70;;
12966;SDS011;6548;49.996;8.238;2023-02-08T13:35:00;12.98;;;7.43;;
12966;SDS011;6548;49.996;8.238;2023-02-08T13:37:31;13.52;;;8.10;;
12966;SDS011;6548;49.996;8.238;2023-02-08T13:40:17;11.05;;;7.82;;
12966;SDS011;6548;49.996;8.238;2023-02-08T13:42:57;13.55;;;7.55;;
12966;SDS011;6548;49.996;8.238;2023-02-08T13:45:33;16.40;;;8.75;;
12966;SDS011;6548;49.996;8.238;2023-02-08T13:48:05;14.38;;;8.57;;
12966;SDS011;6548;49.996;8.238;2023-02-08T13:50:38;11.10;;;7.63;;
12966;SDS011;6548;49.996;8.238;2023-02-08T13:53:09;10.52;;;6.68;;
12966;SDS011;6548;49.996;8.238;2023-02-08T13:55:40;14.52;;;8.68;;
12966;SDS011;6548;49.996;8.238;2023-02-08T14:03:39;13.40;;;7.32;;
12966;SDS011;6548;49.996;8.238;2023-02-08T14:06:22;16.20;;;7.00;;
12966;SDS011;6548;49.996;8.238;2023-02-08T14:09:12;13.05;;;7.03;;
12966;SDS011;6548;49.996;8.238;2023-02-08T14:11:44;17.10;;;7.80;;
12966;SDS011;6548;49.996;8.238;2023-02-08T14:14:19;11.38;;;6.93;;
12966;SDS011;6548;49.996;8.238;2023-02-08T14:17:19;14.30;;;6.95;;
12966;SDS011;6548;49.996;8.238;2023-02-08T14:20:23;13.32;;;7.75;;
12966;SDS011;6548;49.996;8.238;2023-02-08T14:22:47;12.50;;;7.72;;
12966;SDS011;6548;49.996;8.238;2023-02-08T14:25:16;14.23;;;7.80;;
12966;SDS011;6548;49.996;8.238;2023-02-08T14:27:49;15.77;;;8.43;;
12966;SDS011;6548;49.996;8.238;2023-02-08T14:32:44;11.52;;;7.65;;
12966;SDS011;6548;49.996;8.238;2023-02-08T14:35:41;12.15;;;7.60;;
12966;SDS011;6548;49.996;8.238;2023-02-08T14:40:50;11.88;;;7.15;;
12966;SDS011;6548;49.996;8.238;2023-02-08T14:43:34;10.95;;;7.28;;
12966;SDS011;6548;49.996;8.238;2023-02-08T14:47:06;15.60;;;8.73;;
12966;SDS011;6548;49.996;8.238;2023-02-08T14:49:12;12.13;;;7.13;;
12966;SDS011;6548;49.996;8.238;2023-02-08T14:51:45;13.93;;;7.72;;
12966;SDS011;6548;49.996;8.238;2023-02-08T14:56:49;12.00;;;8.73;;
12966;SDS011;6548;49.996;8.238;2023-02-08T14:59:23;13.07;;;7.45;;
12966;SDS011;6548;49.996;8.238;2023-02-08T15:01:55;12.52;;;6.90;;
12966;SDS011;6548;49.996;8.238;2023-02-08T15:04:24;11.00;;;6.63;;
12966;SDS011;6548;49.996;8.238;2023-02-08T15:07:04;11.10;;;6.97;;
12966;SDS011;6548;49.996;8.238;2023-02-08T15:09:40;10.30;;;6.68;;
12966;SDS011;6548;49.996;8.238;2023-02-08T15:12:10;11.13;;;5.90;;
12966;SDS011;6548;49.996;8.238;2023-02-08T15:14:38;12.98;;;6.90;;
12966;SDS011;6548;49.996;8.238;2023-02-08T15:17:05;13.18;;;6.30;;
12966;SDS011;6548;49.996;8.238;2023-02-08T15:19:39;10.20;;;5.85;;
12966;SDS011;6548;49.996;8.238;2023-02-08T15:24:52;13.68;;;6.63;;
12966;SDS011;6548;49.996;8.238;2023-02-08T15:27:22;11.07;;;6.35;;
12966;SDS011;6548;49.996;8.238;2023-02-08T15:29:58;10.00;;;5.65;;
12966;SDS011;6548;49.996;8.238;2023-02-08T15:32:25;9.73;;;5.82;;
12966;SDS011;6548;49.996;8.238;2023-02-08T15:34:54;10.88;;;5.82;;
12966;SDS011;6548;49.996;8.238;2023-02-08T15:37:22;12.95;;;6.25;;
12966;SDS011;6548;49.996;8.238;2023-02-08T15:39:49;9.57;;;5.88;;
12966;SDS011;6548;49.996;8.238;2023-02-08T15:42:23;9.70;;;6.40;;
12966;SDS011;6548;49.996;8.238;2023-02-08T15:44:53;9.20;;;5.78;;
12966;SDS011;6548;49.996;8.238;2023-02-08T15:47:24;9.18;;;5.55;;
12966;SDS011;6548;49.996;8.238;2023-02-08T15:50:02;10.07;;;5.82;;
12966;SDS011;6548;49.996;8.238;2023-02-08T15:52:30;13.43;;;7.35;;
12966;SDS011;6548;49.996;8.238;2023-02-08T15:54:59;8.75;;;5.47;;
12966;SDS011;6548;49.996;8.238;2023-02-08T16:00:12;12.63;;;6.70;;
12966;SDS011;6548;49.996;8.238;2023-02-08T16:02:41;9.32;;;5.05;;
12966;SDS011;6548;49.996;8.238;2023-02-08T16:05:16;8.73;;;6.32;;
12966;SDS011;6548;49.996;8.238;2023-02-08T16:07:53;11.93;;;5.63;;
12966;SDS011;6548;49.996;8.238;2023-02-08T16:10:22;11.98;;;5.72;;
12966;SDS011;6548;49.996;8.238;2023-02-08T16:12:55;10.05;;;4.43;;
12966;SDS011;6548;49.996;8.238;2023-02-08T16:16:24;9.98;;;5.30;;
12966;SDS011;6548;49.996;8.238;2023-02-08T16:18:37;12.43;;;5.97;;
12966;SDS011;6548;49.996;8.238;2023-02-08T16:23:47;10.40;;;5.55;;
12966;SDS011;6548;49.996;8.238;2023-02-08T16:26:23;9.52;;;5.00;;
12966;SDS011;6548;49.996;8.238;2023-02-08T16:28:56;10.95;;;5.95;;
12966;SDS011;6548;49.996;8.238;2023-02-08T16:31:30;12.10;;;7.25;;
12966;SDS011;6548;49.996;8.238;2023-02-08T16:34:03;13.73;;;6.05;;
12966;SDS011;6548;49.996;8.238;2023-02-08T16:44:28;10.02;;;5.25;;
12966;SDS011;6548;49.996;8.238;2023-02-08T16:49:26;12.15;;;5.53;;
12966;SDS011;6548;49.996;8.238;2023-02-08T16:51:56;11.20;;;5.78;;
12966;SDS011;6548;49.996;8.238;2023-02-08T16:54:22;8.60;;;5.18;;
12966;SDS011;6548;49.996;8.238;2023-02-08T16:56:49;11.55;;;6.35;;
12966;SDS011;6548;49.996;8.238;2023-02-08T16:59:19;15.68;;;6.60;;
12966;SDS011;6548;49.996;8.238;2023-02-08T17:01:45;11.10;;;6.10;;
12966;SDS011;6548;49.996;8.238;2023-02-08T17:04:14;13.60;;;6.70;;
12966;SDS011;6548;49.996;8.238;2023-02-08T17:06:40;16.30;;;6.88;;
12966;SDS011;6548;49.996;8.238;2023-02-08T17:09:07;11.85;;;6.07;;